sensor_id;sensor_type;location;lat;lon;timestamp;temperature;humidity
9987;DHT22;5033;46.310;11.214;2022-11-21T00:02:04;5.40;99.90
9987;DHT22;5033;46.310;11.214;2022-11-21T00:04:33;5.40;99.90
9987;DHT22;5033;46.310;11.214;2022-11-21T00:07:00;5.40;99.90
9987;DHT22;5033;46.310;11.214;2022-11-21T00:09:27;5.40;99.90
9987;DHT22;5033;46.310;11.214;2022-11-21T00:11:54;5.50;99.90
9987;DHT22;5033;46.310;11.214;2022-11-21T00:14:21;5.50;99.90
9987;DHT22;5033;46.310;11.214;2022-11-21T00:16:48;5.50;99.90
9987;DHT22;5033;46.310;11.214;2022-11-21T00:19:15;5.50;99.90
9987;DHT22;5033;46.310;11.214;2022-11-21T00:21:44;5.40;99.90
9987;DHT22;5033;46.310;11.214;2022-11-21T00:24:11;5.40;99.90
9987;DHT22;5033;46.310;11.214;2022-11-21T00:26:38;5.30;99.90
9987;DHT22;5033;46.310;11.214;2022-11-21T00:29:05;5.30;99.90
9987;DHT22;5033;46.310;11.214;2022-11-21T00:31:32;5.20;99.90
9987;DHT22;5033;46.310;11.214;2022-11-21T00:36:39;5.20;99.90
9987;DHT22;5033;46.310;11.214;2022-11-21T00:39:08;5.20;99.90
9987;DHT22;5033;46.310;11.214;2022-11-21T00:41:35;5.10;99.90
9987;DHT22;5033;46.310;11.214;2022-11-21T00:44:03;5.10;99.90
9987;DHT22;5033;46.310;11.214;2022-11-21T00:46:30;5.10;99.90
9987;DHT22;5033;46.310;11.214;2022-11-21T00:48:58;5.10;99.90
9987;DHT22;5033;46.310;11.214;2022-11-21T00:51:25;5.00;99.90
9987;DHT22;5033;46.310;11.214;2022-11-21T00:53:52;5.00;99.90
9987;DHT22;5033;46.310;11.214;2022-11-21T00:56:21;5.00;99.90
9987;DHT22;5033;46.310;11.214;2022-11-21T00:58:48;5.00;99.90
9987;DHT22;5033;46.310;11.214;2022-11-21T01:01:15;5.00;99.90
9987;DHT22;5033;46.310;11.214;2022-11-21T01:03:42;4.90;99.90
9987;DHT22;5033;46.310;11.214;2022-11-21T01:06:12;4.90;99.90
9987;DHT22;5033;46.310;11.214;2022-11-21T01:08:41;4.90;99.90
9987;DHT22;5033;46.310;11.214;2022-11-21T01:11:11;4.90;99.90
9987;DHT22;5033;46.310;11.214;2022-11-21T01:13:40;4.90;99.90
9987;DHT22;5033;46.310;11.214;2022-11-21T01:16:12;4.80;99.90
9987;DHT22;5033;46.310;11.214;2022-11-21T01:18:39;4.80;99.90
9987;DHT22;5033;46.310;11.214;2022-11-21T01:21:12;4.80;99.90
9987;DHT22;5033;46.310;11.214;2022-11-21T01:23:40;4.70;99.90
9987;DHT22;5033;46.310;11.214;2022-11-21T01:26:11;4.70;99.90
9987;DHT22;5033;46.310;11.214;2022-11-21T01:28:40;4.60;99.90
9987;DHT22;5033;46.310;11.214;2022-11-21T01:31:09;4.60;99.90
9987;DHT22;5033;46.310;11.214;2022-11-21T01:33:37;4.60;99.90
9987;DHT22;5033;46.310;11.214;2022-11-21T01:36:08;4.50;99.90
9987;DHT22;5033;46.310;11.214;2022-11-21T01:38:36;4.50;99.90
9987;DHT22;5033;46.310;11.214;2022-11-21T01:41:03;4.40;99.90
9987;DHT22;5033;46.310;11.214;2022-11-21T01:43:31;4.40;99.90
9987;DHT22;5033;46.310;11.214;2022-11-21T01:46:03;4.40;99.90
9987;DHT22;5033;46.310;11.214;2022-11-21T01:48:34;4.30;99.90
9987;DHT22;5033;46.310;11.214;2022-11-21T01:51:07;4.30;99.90
9987;DHT22;5033;46.310;11.214;2022-11-21T01:53:37;4.30;99.90
9987;DHT22;5033;46.310;11.214;2022-11-21T01:56:06;4.30;99.90
9987;DHT22;5033;46.310;11.214;2022-11-21T01:58:34;4.30;99.90
9987;DHT22;5033;46.310;11.214;2022-11-21T02:01:04;4.30;99.90
9987;DHT22;5033;46.310;11.214;2022-11-21T02:03:33;4.30;99.90
9987;DHT22;5033;46.310;11.214;2022-11-21T02:06:03;4.20;99.90
9987;DHT22;5033;46.310;11.214;2022-11-21T02:08:31;4.30;99.90
9987;DHT22;5033;46.310;11.214;2022-11-21T02:11:07;4.30;99.90
9987;DHT22;5033;46.310;11.214;2022-11-21T02:13:35;4.30;99.90
9987;DHT22;5033;46.310;11.214;2022-11-21T02:16:04;4.30;99.90
9987;DHT22;5033;46.310;11.214;2022-11-21T02:18:32;4.30;99.90
9987;DHT22;5033;46.310;11.214;2022-11-21T02:21:04;4.30;99.90
9987;DHT22;5033;46.310;11.214;2022-11-21T02:23:38;4.30;99.90
9987;DHT22;5033;46.310;11.214;2022-11-21T02:26:08;4.30;99.90
9987;DHT22;5033;46.310;11.214;2022-11-21T02:28:36;4.30;99.90
9987;DHT22;5033;46.310;11.214;2022-11-21T02:31:03;4.30;99.90
9987;DHT22;5033;46.310;11.214;2022-11-21T02:33:30;4.30;99.90
9987;DHT22;5033;46.310;11.214;2022-11-21T02:35:58;4.30;99.90
9987;DHT22;5033;46.310;11.214;2022-11-21T02:38:29;4.30;99.90
9987;DHT22;5033;46.310;11.214;2022-11-21T02:41:02;4.20;99.90
9987;DHT22;5033;46.310;11.214;2022-11-21T02:43:36;4.10;99.90
9987;DHT22;5033;46.310;11.214;2022-11-21T02:46:05;4.00;99.90
9987;DHT22;5033;46.310;11.214;2022-11-21T02:48:33;4.00;99.90
9987;DHT22;5033;46.310;11.214;2022-11-21T02:51:02;3.90;99.90
9987;DHT22;5033;46.310;11.214;2022-11-21T02:53:29;3.90;99.90
9987;DHT22;5033;46.310;11.214;2022-11-21T02:55:57;3.90;99.90
9987;DHT22;5033;46.310;11.214;2022-11-21T02:58:24;3.90;99.90
9987;DHT22;5033;46.310;11.214;2022-11-21T03:00:53;3.90;99.90
9987;DHT22;5033;46.310;11.214;2022-11-21T03:03:21;3.80;99.90
9987;DHT22;5033;46.310;11.214;2022-11-21T03:05:48;3.80;99.90
9987;DHT22;5033;46.310;11.214;2022-11-21T03:08:15;3.70;99.90
9987;DHT22;5033;46.310;11.214;2022-11-21T03:10:42;3.70;99.90
9987;DHT22;5033;46.310;11.214;2022-11-21T03:13:10;3.70;99.90
9987;DHT22;5033;46.310;11.214;2022-11-21T03:15:37;3.70;99.90
9987;DHT22;5033;46.310;11.214;2022-11-21T03:18:06;3.70;99.90
9987;DHT22;5033;46.310;11.214;2022-11-21T03:20:34;3.80;99.90
9987;DHT22;5033;46.310;11.214;2022-11-21T03:23:01;3.80;99.90
9987;DHT22;5033;46.310;11.214;2022-11-21T03:25:29;3.70;99.90
9987;DHT22;5033;46.310;11.214;2022-11-21T03:27:56;3.70;99.90
9987;DHT22;5033;46.310;11.214;2022-11-21T03:30:24;3.70;99.90
9987;DHT22;5033;46.310;11.214;2022-11-21T03:32:54;3.60;99.90
9987;DHT22;5033;46.310;11.214;2022-11-21T03:35:23;3.50;99.90
9987;DHT22;5033;46.310;11.214;2022-11-21T03:37:50;3.50;99.90
9987;DHT22;5033;46.310;11.214;2022-11-21T03:40:18;3.40;99.90
9987;DHT22;5033;46.310;11.214;2022-11-21T03:42:45;3.40;99.90
9987;DHT22;5033;46.310;11.214;2022-11-21T03:45:12;3.50;99.90
9987;DHT22;5033;46.310;11.214;2022-11-21T03:47:40;3.40;99.90
9987;DHT22;5033;46.310;11.214;2022-11-21T03:50:08;3.40;99.90
9987;DHT22;5033;46.310;11.214;2022-11-21T03:52:38;3.40;99.90
9987;DHT22;5033;46.310;11.214;2022-11-21T03:55:05;3.40;99.90
9987;DHT22;5033;46.310;11.214;2022-11-21T03:57:33;3.40;99.90
9987;DHT22;5033;46.310;11.214;2022-11-21T04:00:00;3.40;99.90
9987;DHT22;5033;46.310;11.214;2022-11-21T04:02:28;3.30;99.90
9987;DHT22;5033;46.310;11.214;2022-11-21T04:04:55;3.30;99.90
9987;DHT22;5033;46.310;11.214;2022-11-21T04:07:23;3.30;99.90
9987;DHT22;5033;46.310;11.214;2022-11-21T04:09:52;3.40;99.90
9987;DHT22;5033;46.310;11.214;2022-11-21T04:12:19;3.40;99.90
9987;DHT22;5033;46.310;11.214;2022-11-21T04:14:46;3.40;99.90
9987;DHT22;5033;46.310;11.214;2022-11-21T04:17:14;3.40;99.90
9987;DHT22;5033;46.310;11.214;2022-11-21T04:19:41;3.40;99.90
9987;DHT22;5033;46.310;11.214;2022-11-21T04:22:08;3.40;99.90
9987;DHT22;5033;46.310;11.214;2022-11-21T04:24:36;3.40;99.90
9987;DHT22;5033;46.310;11.214;2022-11-21T04:27:05;3.40;99.90
9987;DHT22;5033;46.310;11.214;2022-11-21T04:29:32;3.30;99.90
9987;DHT22;5033;46.310;11.214;2022-11-21T04:31:59;3.30;99.90
9987;DHT22;5033;46.310;11.214;2022-11-21T04:34:26;3.30;99.90
9987;DHT22;5033;46.310;11.214;2022-11-21T04:36:53;3.30;99.90
9987;DHT22;5033;46.310;11.214;2022-11-21T04:39:20;3.20;99.90
9987;DHT22;5033;46.310;11.214;2022-11-21T04:41:47;3.20;99.90
9987;DHT22;5033;46.310;11.214;2022-11-21T04:44:16;3.10;99.90
9987;DHT22;5033;46.310;11.214;2022-11-21T04:46:43;3.10;99.90
9987;DHT22;5033;46.310;11.214;2022-11-21T04:49:11;3.10;99.90
9987;DHT22;5033;46.310;11.214;2022-11-21T04:51:38;3.10;99.90
9987;DHT22;5033;46.310;11.214;2022-11-21T04:54:05;3.10;99.90
9987;DHT22;5033;46.310;11.214;2022-11-21T04:56:32;3.00;99.90
9987;DHT22;5033;46.310;11.214;2022-11-21T04:59:00;3.00;99.90
9987;DHT22;5033;46.310;11.214;2022-11-21T05:01:29;2.90;99.90
9987;DHT22;5033;46.310;11.214;2022-11-21T05:03:56;2.90;99.90
9987;DHT22;5033;46.310;11.214;2022-11-21T05:06:23;2.90;99.90
9987;DHT22;5033;46.310;11.214;2022-11-21T05:08:50;2.90;99.90
9987;DHT22;5033;46.310;11.214;2022-11-21T05:11:18;2.90;99.90
9987;DHT22;5033;46.310;11.214;2022-11-21T05:14:02;2.90;99.90
9987;DHT22;5033;46.310;11.214;2022-11-21T05:16:33;3.00;99.90
9987;DHT22;5033;46.310;11.214;2022-11-21T05:19:00;3.00;99.90
9987;DHT22;5033;46.310;11.214;2022-11-21T05:21:28;2.90;99.90
9987;DHT22;5033;46.310;11.214;2022-11-21T05:23:55;2.90;99.90
9987;DHT22;5033;46.310;11.214;2022-11-21T05:26:22;2.90;99.90
9987;DHT22;5033;46.310;11.214;2022-11-21T05:28:49;3.00;99.90
9987;DHT22;5033;46.310;11.214;2022-11-21T05:31:17;3.00;99.90
9987;DHT22;5033;46.310;11.214;2022-11-21T05:33:45;3.00;99.90
9987;DHT22;5033;46.310;11.214;2022-11-21T05:36:13;3.00;99.90
9987;DHT22;5033;46.310;11.214;2022-11-21T05:38:40;3.00;99.90
9987;DHT22;5033;46.310;11.214;2022-11-21T05:41:07;3.00;99.90
9987;DHT22;5033;46.310;11.214;2022-11-21T05:43:35;2.90;99.90
9987;DHT22;5033;46.310;11.214;2022-11-21T05:46:15;2.90;99.90
9987;DHT22;5033;46.310;11.214;2022-11-21T05:48:42;2.90;99.90
9987;DHT22;5033;46.310;11.214;2022-11-21T05:51:11;2.90;99.90
9987;DHT22;5033;46.310;11.214;2022-11-21T05:53:39;2.90;99.90
9987;DHT22;5033;46.310;11.214;2022-11-21T05:56:08;2.90;99.90
9987;DHT22;5033;46.310;11.214;2022-11-21T05:58:35;2.90;99.90
9987;DHT22;5033;46.310;11.214;2022-11-21T06:01:03;2.90;99.90
9987;DHT22;5033;46.310;11.214;2022-11-21T06:03:33;2.90;99.90
9987;DHT22;5033;46.310;11.214;2022-11-21T06:06:02;2.90;99.90
9987;DHT22;5033;46.310;11.214;2022-11-21T06:08:32;2.90;99.90
9987;DHT22;5033;46.310;11.214;2022-11-21T06:11:00;2.90;99.90
9987;DHT22;5033;46.310;11.214;2022-11-21T06:13:27;2.90;99.90
9987;DHT22;5033;46.310;11.214;2022-11-21T06:15:58;2.90;99.90
9987;DHT22;5033;46.310;11.214;2022-11-21T06:18:26;2.80;99.90
9987;DHT22;5033;46.310;11.214;2022-11-21T06:20:54;2.80;99.90
9987;DHT22;5033;46.310;11.214;2022-11-21T06:23:26;2.70;99.90
9987;DHT22;5033;46.310;11.214;2022-11-21T06:25:56;2.70;99.90
9987;DHT22;5033;46.310;11.214;2022-11-21T06:28:24;2.70;99.90
9987;DHT22;5033;46.310;11.214;2022-11-21T06:30:51;2.70;99.90
9987;DHT22;5033;46.310;11.214;2022-11-21T06:33:21;2.70;99.90
9987;DHT22;5033;46.310;11.214;2022-11-21T06:35:48;2.70;99.90
9987;DHT22;5033;46.310;11.214;2022-11-21T06:38:16;2.70;99.90
9987;DHT22;5033;46.310;11.214;2022-11-21T06:40:44;2.80;99.90
9987;DHT22;5033;46.310;11.214;2022-11-21T06:43:13;2.80;99.90
9987;DHT22;5033;46.310;11.214;2022-11-21T06:45:40;2.80;99.90
9987;DHT22;5033;46.310;11.214;2022-11-21T06:48:08;2.90;99.90
9987;DHT22;5033;46.310;11.214;2022-11-21T06:50:35;2.90;99.90
9987;DHT22;5033;46.310;11.214;2022-11-21T06:53:03;2.90;99.90
9987;DHT22;5033;46.310;11.214;2022-11-21T06:55:30;3.00;99.90
9987;DHT22;5033;46.310;11.214;2022-11-21T06:57:58;3.00;99.90
9987;DHT22;5033;46.310;11.214;2022-11-21T07:00:27;3.00;99.90
9987;DHT22;5033;46.310;11.214;2022-11-21T07:02:55;3.20;99.90
9987;DHT22;5033;46.310;11.214;2022-11-21T07:05:25;3.30;99.90
9987;DHT22;5033;46.310;11.214;2022-11-21T07:07:57;3.40;99.90
9987;DHT22;5033;46.310;11.214;2022-11-21T07:10:24;3.30;99.90
9987;DHT22;5033;46.310;11.214;2022-11-21T07:12:51;3.20;99.90
9987;DHT22;5033;46.310;11.214;2022-11-21T07:15:41;3.20;99.90
9987;DHT22;5033;46.310;11.214;2022-11-21T07:18:08;3.10;99.90
9987;DHT22;5033;46.310;11.214;2022-11-21T07:20:36;3.10;99.90
9987;DHT22;5033;46.310;11.214;2022-11-21T07:23:04;3.00;99.90
9987;DHT22;5033;46.310;11.214;2022-11-21T07:25:32;3.00;99.90
9987;DHT22;5033;46.310;11.214;2022-11-21T07:27:59;2.90;99.90
9987;DHT22;5033;46.310;11.214;2022-11-21T07:30:27;2.90;99.90
9987;DHT22;5033;46.310;11.214;2022-11-21T07:32:56;2.90;99.90
9987;DHT22;5033;46.310;11.214;2022-11-21T07:35:24;2.90;99.90
9987;DHT22;5033;46.310;11.214;2022-11-21T07:37:52;2.90;99.90
9987;DHT22;5033;46.310;11.214;2022-11-21T07:40:20;2.90;99.90
9987;DHT22;5033;46.310;11.214;2022-11-21T07:42:47;2.90;99.90
9987;DHT22;5033;46.310;11.214;2022-11-21T07:45:15;3.00;99.90
9987;DHT22;5033;46.310;11.214;2022-11-21T07:47:42;3.00;99.90
9987;DHT22;5033;46.310;11.214;2022-11-21T07:50:11;3.00;99.90
9987;DHT22;5033;46.310;11.214;2022-11-21T07:52:39;3.00;99.90
9987;DHT22;5033;46.310;11.214;2022-11-21T07:55:07;3.20;99.90
9987;DHT22;5033;46.310;11.214;2022-11-21T07:57:35;4.20;99.90
9987;DHT22;5033;46.310;11.214;2022-11-21T08:00:03;5.40;99.90
9987;DHT22;5033;46.310;11.214;2022-11-21T08:02:30;6.60;99.90
9987;DHT22;5033;46.310;11.214;2022-11-21T08:04:57;7.70;99.90
9987;DHT22;5033;46.310;11.214;2022-11-21T08:07:26;8.60;99.90
9987;DHT22;5033;46.310;11.214;2022-11-21T08:09:53;9.20;99.90
9987;DHT22;5033;46.310;11.214;2022-11-21T08:12:21;9.70;99.90
9987;DHT22;5033;46.310;11.214;2022-11-21T08:14:48;10.10;99.90
9987;DHT22;5033;46.310;11.214;2022-11-21T08:17:15;10.40;99.90
9987;DHT22;5033;46.310;11.214;2022-11-21T08:19:43;10.70;99.90
9987;DHT22;5033;46.310;11.214;2022-11-21T08:22:10;10.80;99.90
9987;DHT22;5033;46.310;11.214;2022-11-21T08:24:38;10.90;99.90
9987;DHT22;5033;46.310;11.214;2022-11-21T08:27:06;11.30;99.90
9987;DHT22;5033;46.310;11.214;2022-11-21T08:29:33;11.50;99.90
9987;DHT22;5033;46.310;11.214;2022-11-21T08:32:01;11.90;99.90
9987;DHT22;5033;46.310;11.214;2022-11-21T08:34:30;11.90;99.90
9987;DHT22;5033;46.310;11.214;2022-11-21T08:36:57;12.00;99.90
9987;DHT22;5033;46.310;11.214;2022-11-21T08:39:27;12.00;99.90
9987;DHT22;5033;46.310;11.214;2022-11-21T08:41:57;12.10;99.90
9987;DHT22;5033;46.310;11.214;2022-11-21T08:44:30;12.30;99.90
9987;DHT22;5033;46.310;11.214;2022-11-21T08:46:58;12.30;99.90
9987;DHT22;5033;46.310;11.214;2022-11-21T08:49:26;12.50;99.90
9987;DHT22;5033;46.310;11.214;2022-11-21T08:51:53;12.80;99.90
9987;DHT22;5033;46.310;11.214;2022-11-21T08:54:22;13.20;99.90
9987;DHT22;5033;46.310;11.214;2022-11-21T08:56:49;13.30;99.90
9987;DHT22;5033;46.310;11.214;2022-11-21T08:59:18;13.40;99.90
9987;DHT22;5033;46.310;11.214;2022-11-21T09:01:45;13.60;99.90
9987;DHT22;5033;46.310;11.214;2022-11-21T09:04:13;14.40;99.90
9987;DHT22;5033;46.310;11.214;2022-11-21T09:06:40;15.50;99.90
9987;DHT22;5033;46.310;11.214;2022-11-21T09:09:07;16.80;99.90
9987;DHT22;5033;46.310;11.214;2022-11-21T09:11:35;18.00;99.90
9987;DHT22;5033;46.310;11.214;2022-11-21T09:14:03;19.40;99.90
9987;DHT22;5033;46.310;11.214;2022-11-21T09:16:49;20.80;96.40
9987;DHT22;5033;46.310;11.214;2022-11-21T09:19:33;21.70;91.00
9987;DHT22;5033;46.310;11.214;2022-11-21T09:22:01;22.40;86.80
9987;DHT22;5033;46.310;11.214;2022-11-21T09:24:28;22.70;81.80
9987;DHT22;5033;46.310;11.214;2022-11-21T09:26:55;22.70;80.60
9987;DHT22;5033;46.310;11.214;2022-11-21T09:29:22;22.50;79.30
9987;DHT22;5033;46.310;11.214;2022-11-21T09:31:51;21.80;78.00
9987;DHT22;5033;46.310;11.214;2022-11-21T09:34:19;20.80;79.90
9987;DHT22;5033;46.310;11.214;2022-11-21T09:36:46;19.70;82.90
9987;DHT22;5033;46.310;11.214;2022-11-21T09:39:13;18.50;87.60
9987;DHT22;5033;46.310;11.214;2022-11-21T09:41:51;17.10;91.30
9987;DHT22;5033;46.310;11.214;2022-11-21T09:47:23;15.10;96.80
9987;DHT22;5033;46.310;11.214;2022-11-21T09:49:58;14.70;99.10
9987;DHT22;5033;46.310;11.214;2022-11-21T09:52:34;14.50;99.90
9987;DHT22;5033;46.310;11.214;2022-11-21T09:55:06;14.40;99.90
9987;DHT22;5033;46.310;11.214;2022-11-21T09:57:37;14.50;99.90
9987;DHT22;5033;46.310;11.214;2022-11-21T10:00:21;14.50;99.90
9987;DHT22;5033;46.310;11.214;2022-11-21T10:02:51;14.60;99.90
9987;DHT22;5033;46.310;11.214;2022-11-21T10:05:24;14.50;99.90
9987;DHT22;5033;46.310;11.214;2022-11-21T10:07:58;14.50;99.90
9987;DHT22;5033;46.310;11.214;2022-11-21T10:10:36;14.60;99.90
9987;DHT22;5033;46.310;11.214;2022-11-21T10:13:18;14.50;99.90
9987;DHT22;5033;46.310;11.214;2022-11-21T10:15:56;14.50;99.90
9987;DHT22;5033;46.310;11.214;2022-11-21T10:18:45;14.50;99.90
9987;DHT22;5033;46.310;11.214;2022-11-21T10:21:29;14.20;99.90
9987;DHT22;5033;46.310;11.214;2022-11-21T10:24:11;14.50;99.90
9987;DHT22;5033;46.310;11.214;2022-11-21T10:26:44;14.60;99.90
9987;DHT22;5033;46.310;11.214;2022-11-21T10:29:18;14.40;99.90
9987;DHT22;5033;46.310;11.214;2022-11-21T10:31:48;14.40;99.90
9987;DHT22;5033;46.310;11.214;2022-11-21T10:34:19;14.40;99.90
9987;DHT22;5033;46.310;11.214;2022-11-21T10:36:50;14.40;99.90
9987;DHT22;5033;46.310;11.214;2022-11-21T10:39:22;14.10;99.90
9987;DHT22;5033;46.310;11.214;2022-11-21T10:41:57;14.10;99.90
9987;DHT22;5033;46.310;11.214;2022-11-21T10:44:26;14.20;99.90
9987;DHT22;5033;46.310;11.214;2022-11-21T10:47:14;14.30;99.90
9987;DHT22;5033;46.310;11.214;2022-11-21T10:49:58;14.50;99.90
9987;DHT22;5033;46.310;11.214;2022-11-21T10:52:30;14.50;99.90
9987;DHT22;5033;46.310;11.214;2022-11-21T10:55:10;14.10;99.90
9987;DHT22;5033;46.310;11.214;2022-11-21T10:57:43;13.80;99.90
9987;DHT22;5033;46.310;11.214;2022-11-21T11:00:20;13.90;99.90
9987;DHT22;5033;46.310;11.214;2022-11-21T11:03:08;13.80;99.90
9987;DHT22;5033;46.310;11.214;2022-11-21T11:05:53;14.00;99.90
9987;DHT22;5033;46.310;11.214;2022-11-21T11:08:21;14.10;99.90
9987;DHT22;5033;46.310;11.214;2022-11-21T11:11:02;14.10;99.90
9987;DHT22;5033;46.310;11.214;2022-11-21T11:13:30;14.20;99.90
9987;DHT22;5033;46.310;11.214;2022-11-21T11:16:14;14.20;99.90
9987;DHT22;5033;46.310;11.214;2022-11-21T11:18:46;14.40;99.90
9987;DHT22;5033;46.310;11.214;2022-11-21T11:21:19;14.10;99.90
9987;DHT22;5033;46.310;11.214;2022-11-21T11:23:48;14.20;99.90
9987;DHT22;5033;46.310;11.214;2022-11-21T11:26:26;14.20;99.90
9987;DHT22;5033;46.310;11.214;2022-11-21T11:29:07;14.30;99.90
9987;DHT22;5033;46.310;11.214;2022-11-21T11:31:41;14.10;99.90
9987;DHT22;5033;46.310;11.214;2022-11-21T11:34:11;14.00;99.90
9987;DHT22;5033;46.310;11.214;2022-11-21T11:36:59;14.00;99.90
9987;DHT22;5033;46.310;11.214;2022-11-21T11:39:38;14.20;99.90
9987;DHT22;5033;46.310;11.214;2022-11-21T11:45:33;14.30;99.90
9987;DHT22;5033;46.310;11.214;2022-11-21T11:48:19;14.30;99.90
9987;DHT22;5033;46.310;11.214;2022-11-21T11:50:49;14.30;99.90
9987;DHT22;5033;46.310;11.214;2022-11-21T11:53:21;14.00;99.90
9987;DHT22;5033;46.310;11.214;2022-11-21T11:55:52;13.50;99.90
9987;DHT22;5033;46.310;11.214;2022-11-21T11:58:23;13.20;99.90
9987;DHT22;5033;46.310;11.214;2022-11-21T12:00:58;13.20;99.90
9987;DHT22;5033;46.310;11.214;2022-11-21T12:03:35;13.40;99.90
9987;DHT22;5033;46.310;11.214;2022-11-21T12:06:11;13.50;99.90
9987;DHT22;5033;46.310;11.214;2022-11-21T12:08:47;13.50;99.90
9987;DHT22;5033;46.310;11.214;2022-11-21T12:11:24;13.70;99.90
9987;DHT22;5033;46.310;11.214;2022-11-21T12:14:17;13.90;99.90
9987;DHT22;5033;46.310;11.214;2022-11-21T12:17:08;13.80;99.90
9987;DHT22;5033;46.310;11.214;2022-11-21T12:19:37;13.80;99.90
9987;DHT22;5033;46.310;11.214;2022-11-21T12:22:07;13.70;99.90
9987;DHT22;5033;46.310;11.214;2022-11-21T12:24:37;13.90;99.90
9987;DHT22;5033;46.310;11.214;2022-11-21T12:27:16;14.10;99.90
9987;DHT22;5033;46.310;11.214;2022-11-21T12:29:59;14.00;99.90
9987;DHT22;5033;46.310;11.214;2022-11-21T12:32:39;13.90;99.90
9987;DHT22;5033;46.310;11.214;2022-11-21T12:35:26;13.80;99.90
9987;DHT22;5033;46.310;11.214;2022-11-21T12:38:06;13.70;99.90
9987;DHT22;5033;46.310;11.214;2022-11-21T12:40:47;13.50;99.90
9987;DHT22;5033;46.310;11.214;2022-11-21T12:43:28;13.60;99.90
9987;DHT22;5033;46.310;11.214;2022-11-21T12:46:05;13.80;99.90
9987;DHT22;5033;46.310;11.214;2022-11-21T12:48:44;13.90;99.90
9987;DHT22;5033;46.310;11.214;2022-11-21T12:51:51;13.70;99.90
9987;DHT22;5033;46.310;11.214;2022-11-21T12:54:56;13.40;99.90
9987;DHT22;5033;46.310;11.214;2022-11-21T12:57:37;13.10;99.90
9987;DHT22;5033;46.310;11.214;2022-11-21T13:00:14;12.80;99.90
9987;DHT22;5033;46.310;11.214;2022-11-21T13:02:57;12.80;99.90
9987;DHT22;5033;46.310;11.214;2022-11-21T13:05:31;13.00;99.90
9987;DHT22;5033;46.310;11.214;2022-11-21T13:08:01;12.90;99.90
9987;DHT22;5033;46.310;11.214;2022-11-21T13:10:30;12.70;99.90
9987;DHT22;5033;46.310;11.214;2022-11-21T13:13:04;12.40;99.90
9987;DHT22;5033;46.310;11.214;2022-11-21T13:15:42;12.50;99.90
9987;DHT22;5033;46.310;11.214;2022-11-21T13:18:18;12.70;99.90
9987;DHT22;5033;46.310;11.214;2022-11-21T13:20:48;12.70;99.90
9987;DHT22;5033;46.310;11.214;2022-11-21T13:23:35;12.50;99.90
9987;DHT22;5033;46.310;11.214;2022-11-21T13:29:14;12.80;99.90
9987;DHT22;5033;46.310;11.214;2022-11-21T13:31:44;12.80;99.90
9987;DHT22;5033;46.310;11.214;2022-11-21T13:34:35;12.90;99.90
9987;DHT22;5033;46.310;11.214;2022-11-21T13:37:04;12.70;99.90
9987;DHT22;5033;46.310;11.214;2022-11-21T13:39:34;12.50;99.90
9987;DHT22;5033;46.310;11.214;2022-11-21T13:42:07;12.40;99.90
9987;DHT22;5033;46.310;11.214;2022-11-21T13:44:53;12.40;99.90
9987;DHT22;5033;46.310;11.214;2022-11-21T13:50:54;12.40;99.90
9987;DHT22;5033;46.310;11.214;2022-11-21T13:53:48;12.10;99.90
9987;DHT22;5033;46.310;11.214;2022-11-21T13:56:28;11.80;99.90
9987;DHT22;5033;46.310;11.214;2022-11-21T13:59:10;11.70;99.90
9987;DHT22;5033;46.310;11.214;2022-11-21T14:02:05;11.70;99.90
9987;DHT22;5033;46.310;11.214;2022-11-21T14:07:32;11.50;99.90
9987;DHT22;5033;46.310;11.214;2022-11-21T14:10:01;11.40;99.90
9987;DHT22;5033;46.310;11.214;2022-11-21T14:12:31;11.20;99.90
9987;DHT22;5033;46.310;11.214;2022-11-21T14:15:24;11.10;99.90
9987;DHT22;5033;46.310;11.214;2022-11-21T14:17:57;10.90;99.90
9987;DHT22;5033;46.310;11.214;2022-11-21T14:20:27;10.70;99.90
9987;DHT22;5033;46.310;11.214;2022-11-21T14:22:58;10.50;99.90
9987;DHT22;5033;46.310;11.214;2022-11-21T14:25:35;10.30;99.90
9987;DHT22;5033;46.310;11.214;2022-11-21T14:28:05;10.20;99.90
9987;DHT22;5033;46.310;11.214;2022-11-21T14:30:37;10.10;99.90
9987;DHT22;5033;46.310;11.214;2022-11-21T14:33:27;10.00;99.90
9987;DHT22;5033;46.310;11.214;2022-11-21T14:36:00;9.90;99.90
9987;DHT22;5033;46.310;11.214;2022-11-21T14:38:29;9.80;99.90
9987;DHT22;5033;46.310;11.214;2022-11-21T14:41:26;9.80;99.90
9987;DHT22;5033;46.310;11.214;2022-11-21T14:44:05;9.70;99.90
9987;DHT22;5033;46.310;11.214;2022-11-21T14:46:40;9.50;99.90
9987;DHT22;5033;46.310;11.214;2022-11-21T14:49:23;9.40;99.90
9987;DHT22;5033;46.310;11.214;2022-11-21T14:52:00;9.30;99.90
9987;DHT22;5033;46.310;11.214;2022-11-21T14:54:31;9.20;99.90
9987;DHT22;5033;46.310;11.214;2022-11-21T14:57:00;9.10;99.90
9987;DHT22;5033;46.310;11.214;2022-11-21T14:59:30;9.00;99.90
9987;DHT22;5033;46.310;11.214;2022-11-21T15:02:01;9.00;99.90
9987;DHT22;5033;46.310;11.214;2022-11-21T15:04:34;8.90;99.90
9987;DHT22;5033;46.310;11.214;2022-11-21T15:07:02;8.90;99.90
9987;DHT22;5033;46.310;11.214;2022-11-21T15:09:30;8.80;99.90
9987;DHT22;5033;46.310;11.214;2022-11-21T15:12:00;8.80;99.90
9987;DHT22;5033;46.310;11.214;2022-11-21T15:14:32;8.80;99.90
9987;DHT22;5033;46.310;11.214;2022-11-21T15:17:02;8.80;99.90
9987;DHT22;5033;46.310;11.214;2022-11-21T15:19:32;8.70;99.90
9987;DHT22;5033;46.310;11.214;2022-11-21T15:22:01;8.70;99.90
9987;DHT22;5033;46.310;11.214;2022-11-21T15:24:32;8.70;99.90
9987;DHT22;5033;46.310;11.214;2022-11-21T15:27:31;8.60;99.90
9987;DHT22;5033;46.310;11.214;2022-11-21T15:30:23;8.60;99.90
9987;DHT22;5033;46.310;11.214;2022-11-21T15:33:01;8.50;99.90
9987;DHT22;5033;46.310;11.214;2022-11-21T15:35:48;8.50;99.90
9987;DHT22;5033;46.310;11.214;2022-11-21T15:38:27;8.50;99.90
9987;DHT22;5033;46.310;11.214;2022-11-21T15:40:57;8.50;99.90
9987;DHT22;5033;46.310;11.214;2022-11-21T15:43:43;8.40;99.90
9987;DHT22;5033;46.310;11.214;2022-11-21T15:46:14;8.30;99.90
9987;DHT22;5033;46.310;11.214;2022-11-21T15:48:44;8.30;99.90
9987;DHT22;5033;46.310;11.214;2022-11-21T15:51:12;8.30;99.90
9987;DHT22;5033;46.310;11.214;2022-11-21T15:53:40;8.20;99.90
9987;DHT22;5033;46.310;11.214;2022-11-21T15:56:10;8.20;99.90
9987;DHT22;5033;46.310;11.214;2022-11-21T15:58:38;8.20;99.90
9987;DHT22;5033;46.310;11.214;2022-11-21T16:01:11;8.10;99.90
9987;DHT22;5033;46.310;11.214;2022-11-21T16:03:40;8.10;99.90
9987;DHT22;5033;46.310;11.214;2022-11-21T16:06:07;8.10;99.90
9987;DHT22;5033;46.310;11.214;2022-11-21T16:08:36;8.00;99.90
9987;DHT22;5033;46.310;11.214;2022-11-21T16:11:04;8.00;99.90
9987;DHT22;5033;46.310;11.214;2022-11-21T16:13:32;8.00;99.90
9987;DHT22;5033;46.310;11.214;2022-11-21T16:16:00;8.10;99.90
9987;DHT22;5033;46.310;11.214;2022-11-21T16:18:29;8.00;99.90
9987;DHT22;5033;46.310;11.214;2022-11-21T16:21:06;8.00;99.90
9987;DHT22;5033;46.310;11.214;2022-11-21T16:23:36;8.00;99.90
9987;DHT22;5033;46.310;11.214;2022-11-21T16:26:04;8.00;99.90
9987;DHT22;5033;46.310;11.214;2022-11-21T16:28:31;7.90;99.90
9987;DHT22;5033;46.310;11.214;2022-11-21T16:30:59;7.90;99.90
9987;DHT22;5033;46.310;11.214;2022-11-21T16:33:27;7.90;99.90
9987;DHT22;5033;46.310;11.214;2022-11-21T16:35:55;7.90;99.90
9987;DHT22;5033;46.310;11.214;2022-11-21T16:38:24;7.90;99.90
9987;DHT22;5033;46.310;11.214;2022-11-21T16:40:54;7.90;99.90